MEA312 OLBA-OJAI
Flight info
| Callsign | MEA312 |
|---|---|
| Flight time | 0h 41m |
| Altitude | 32000 |
| Route | LEBOR L513 DAM/N0467F310 L513 LOSAR |
| Aircraft | A320/M-SDE3FGHIRWY/LB1 |
Departure
| Time | 2026-04-28 13:10 |
|---|---|
| Airport | Beirut Rafic Hariri International Airport (OLBA) |
Arrival
| Time | 2026-04-28 13:51 |
|---|---|
| Airport | Queen Alia International Airport (OJAI) |
| Time | Latitude | Longitude | Altitude | Speed | Heading |
|---|---|---|---|---|---|
| 2026-04-28 13:06 | 33.82193 | 35.49600 | 66 ft | 12 kts | 33° |
| 2026-04-28 13:06 | 33.82259 | 35.49661 | 67 ft | 12 kts | 43° |
| 2026-04-28 13:06 | 33.82311 | 35.49715 | 69 ft | 13 kts | 40° |
| 2026-04-28 13:07 | 33.82395 | 35.49788 | 70 ft | 15 kts | 34° |
| 2026-04-28 13:07 | 33.82489 | 35.49864 | 72 ft | 16 kts | 35° |
| 2026-04-28 13:07 | 33.82581 | 35.49940 | 74 ft | 15 kts | 33° |
| 2026-04-28 13:07 | 33.82641 | 35.49989 | 75 ft | 15 kts | 35° |
| 2026-04-28 13:08 | 33.82746 | 35.50080 | 77 ft | 8 kts | 45° |
| 2026-04-28 13:08 | 33.82757 | 35.50147 | 78 ft | 9 kts | 104° |
| 2026-04-28 13:08 | 33.82724 | 35.50219 | 79 ft | 10 kts | 128° |
| 2026-04-28 13:08 | 33.82659 | 35.50259 | 79 ft | 11 kts | 176° |
| 2026-04-28 13:09 | 33.82601 | 35.50238 | 78 ft | 0 kts | 210° |
| 2026-04-28 13:09 | 33.82594 | 35.50233 | 78 ft | 2 kts | 211° |
| 2026-04-28 13:09 | 33.82496 | 35.50160 | 77 ft | 53 kts | 213° |
| 2026-04-28 13:09 | 33.81940 | 35.49728 | 65 ft | 134 kts | 212° |
| 2026-04-28 13:10 | 33.81015 | 35.49029 | 343 ft | 169 kts | 213° |
| 2026-04-28 13:10 | 33.80059 | 35.48192 | 1047 ft | 175 kts | 222° |
| 2026-04-28 13:10 | 33.79185 | 35.47126 | 1664 ft | 189 kts | 231° |
| 2026-04-28 13:10 | 33.78283 | 35.45891 | 2257 ft | 204 kts | 228° |
| 2026-04-28 13:11 | 33.77283 | 35.44669 | 2989 ft | 211 kts | 228° |
| 2026-04-28 13:11 | 33.76248 | 35.43375 | 3548 ft | 224 kts | 228° |
| 2026-04-28 13:11 | 33.75103 | 35.41958 | 4019 ft | 247 kts | 227° |
| 2026-04-28 13:11 | 33.73894 | 35.40480 | 4783 ft | 260 kts | 227° |
| 2026-04-28 13:12 | 33.72737 | 35.38734 | 5476 ft | 272 kts | 249° |
| 2026-04-28 13:12 | 33.72489 | 35.36558 | 6389 ft | 270 kts | 282° |
| 2026-04-28 13:12 | 33.73181 | 35.34527 | 7365 ft | 268 kts | 307° |
| 2026-04-28 13:12 | 33.74546 | 35.33052 | 8269 ft | 271 kts | 333° |
| 2026-04-28 13:13 | 33.76343 | 35.32440 | 9152 ft | 275 kts | 358° |
| 2026-04-28 13:13 | 33.78260 | 35.32639 | 10019 ft | 279 kts | 6° |
| 2026-04-28 13:13 | 33.80199 | 35.32876 | 10681 ft | 291 kts | 5° |
| 2026-04-28 13:13 | 33.82262 | 35.33108 | 11168 ft | 309 kts | 5° |
| 2026-04-28 13:14 | 33.84462 | 35.33353 | 11602 ft | 327 kts | 5° |
| 2026-04-28 13:14 | 33.86775 | 35.33710 | 12007 ft | 346 kts | 14° |
| 2026-04-28 13:14 | 33.88997 | 35.34934 | 12585 ft | 357 kts | 32° |
| 2026-04-28 13:14 | 33.91016 | 35.36658 | 13322 ft | 362 kts | 36° |
| 2026-04-28 13:15 | 33.93044 | 35.38491 | 14046 ft | 368 kts | 36° |
| 2026-04-28 13:15 | 33.95091 | 35.40312 | 14727 ft | 372 kts | 35° |
| 2026-04-28 13:15 | 33.97175 | 35.42127 | 15444 ft | 376 kts | 35° |
| 2026-04-28 13:15 | 33.99338 | 35.43981 | 15929 ft | 386 kts | 34° |
| 2026-04-28 13:16 | 34.01560 | 35.45871 | 16477 ft | 394 kts | 34° |
| 2026-04-28 13:16 | 34.03784 | 35.47752 | 17119 ft | 398 kts | 34° |
| 2026-04-28 13:16 | 34.06083 | 35.49691 | 17769 ft | 403 kts | 34° |
| 2026-04-28 13:16 | 34.08360 | 35.51613 | 18355 ft | 407 kts | 34° |
| 2026-04-28 13:17 | 34.10669 | 35.53564 | 18932 ft | 411 kts | 34° |
| 2026-04-28 13:17 | 34.13046 | 35.55562 | 19512 ft | 415 kts | 34° |
| 2026-04-28 13:17 | 34.15402 | 35.57544 | 20105 ft | 419 kts | 34° |
| 2026-04-28 13:17 | 34.17806 | 35.59571 | 20695 ft | 422 kts | 34° |
| 2026-04-28 13:18 | 34.20189 | 35.61587 | 21261 ft | 426 kts | 34° |
| 2026-04-28 13:18 | 34.22607 | 35.63635 | 21817 ft | 430 kts | 34° |
| 2026-04-28 13:18 | 34.24960 | 35.65852 | 22327 ft | 435 kts | 45° |
| 2026-04-28 13:18 | 34.26705 | 35.68797 | 22832 ft | 439 kts | 64° |
| 2026-04-28 13:19 | 34.27618 | 35.72342 | 23393 ft | 442 kts | 82° |
| 2026-04-28 13:19 | 34.27586 | 35.75987 | 23903 ft | 444 kts | 100° |
| 2026-04-28 13:19 | 34.26663 | 35.79444 | 24367 ft | 446 kts | 115° |
| 2026-04-28 13:19 | 34.25331 | 35.82839 | 24806 ft | 451 kts | 117° |
| 2026-04-28 13:20 | 34.23988 | 35.86198 | 25188 ft | 455 kts | 117° |
| 2026-04-28 13:20 | 34.22635 | 35.89619 | 25634 ft | 458 kts | 116° |
| 2026-04-28 13:20 | 34.21322 | 35.92980 | 26225 ft | 457 kts | 116° |
| 2026-04-28 13:20 | 34.19991 | 35.96422 | 26863 ft | 455 kts | 116° |
| 2026-04-28 13:21 | 34.18685 | 35.99819 | 27460 ft | 453 kts | 116° |
| 2026-04-28 13:21 | 34.17390 | 36.03193 | 28009 ft | 452 kts | 116° |
| 2026-04-28 13:21 | 34.16096 | 36.06568 | 28530 ft | 452 kts | 116° |
| 2026-04-28 13:21 | 34.14802 | 36.09940 | 29002 ft | 452 kts | 116° |
| 2026-04-28 13:22 | 34.13549 | 36.13203 | 29442 ft | 453 kts | 116° |
| 2026-04-28 13:22 | 34.12319 | 36.16403 | 29873 ft | 453 kts | 116° |
| 2026-04-28 13:22 | 34.11007 | 36.19811 | 30305 ft | 453 kts | 116° |
| 2026-04-28 13:22 | 34.09681 | 36.23256 | 30687 ft | 454 kts | 116° |
| 2026-04-28 13:23 | 34.08374 | 36.26649 | 31022 ft | 455 kts | 117° |
| 2026-04-28 13:23 | 34.07050 | 36.30077 | 31306 ft | 457 kts | 116° |
| 2026-04-28 13:23 | 34.05712 | 36.33536 | 31587 ft | 460 kts | 117° |
| 2026-04-28 13:23 | 34.04390 | 36.36954 | 31883 ft | 461 kts | 117° |
| 2026-04-28 13:24 | 34.03073 | 36.40393 | 32032 ft | 464 kts | 115° |
| 2026-04-28 13:24 | 33.99971 | 36.47086 | 32042 ft | 459 kts | 133° |
| 2026-04-28 13:24 | 33.97716 | 36.49706 | 32040 ft | 453 kts | 146° |
| 2026-04-28 13:25 | 33.95061 | 36.51705 | 32042 ft | 450 kts | 158° |
| 2026-04-28 13:25 | 33.92163 | 36.52997 | 32039 ft | 449 kts | 169° |
| 2026-04-28 13:25 | 33.89120 | 36.53566 | 32034 ft | 449 kts | 181° |
| 2026-04-28 13:26 | 33.82979 | 36.53035 | 32024 ft | 454 kts | 190° |
| 2026-04-28 13:26 | 33.76717 | 36.52084 | 32021 ft | 456 kts | 191° |
| 2026-04-28 13:27 | 33.70424 | 36.51186 | 32006 ft | 456 kts | 190° |
| 2026-04-28 13:27 | 33.64183 | 36.50358 | 31997 ft | 456 kts | 190° |
| 2026-04-28 13:28 | 33.57895 | 36.49542 | 31990 ft | 456 kts | 189° |
| 2026-04-28 13:28 | 33.51585 | 36.48748 | 31977 ft | 456 kts | 190° |
| 2026-04-28 13:29 | 33.45302 | 36.47958 | 31967 ft | 456 kts | 190° |
| 2026-04-28 13:29 | 33.38983 | 36.47444 | 31968 ft | 457 kts | 185° |
| 2026-04-28 13:30 | 33.32679 | 36.47724 | 31971 ft | 458 kts | 179° |
| 2026-04-28 13:30 | 33.26378 | 36.48785 | 31966 ft | 457 kts | 175° |
| 2026-04-28 13:31 | 33.17019 | 36.50641 | 31961 ft | 456 kts | 175° |
| 2026-04-28 13:31 | 33.10758 | 36.51870 | 31942 ft | 454 kts | 175° |
| 2026-04-28 13:32 | 33.07665 | 36.52473 | 31473 ft | 453 kts | 175° |
| 2026-04-28 13:32 | 33.04556 | 36.53066 | 30338 ft | 461 kts | 176° |
| 2026-04-28 13:32 | 33.01382 | 36.53507 | 29242 ft | 464 kts | 179° |
| 2026-04-28 13:32 | 32.98189 | 36.53837 | 28516 ft | 460 kts | 179° |
| 2026-04-28 13:33 | 32.95009 | 36.54174 | 27803 ft | 455 kts | 179° |
| 2026-04-28 13:33 | 32.91892 | 36.54505 | 27098 ft | 454 kts | 179° |
| 2026-04-28 13:33 | 32.88766 | 36.54834 | 26274 ft | 455 kts | 178° |
| 2026-04-28 13:33 | 32.85628 | 36.55167 | 25737 ft | 447 kts | 178° |
| 2026-04-28 13:34 | 32.82553 | 36.55495 | 25192 ft | 441 kts | 178° |
| 2026-04-28 13:34 | 32.79548 | 36.55814 | 24626 ft | 436 kts | 178° |
| 2026-04-28 13:34 | 32.76530 | 36.56134 | 24062 ft | 431 kts | 178° |
| 2026-04-28 13:34 | 32.73557 | 36.56447 | 23490 ft | 427 kts | 178° |
| 2026-04-28 13:35 | 32.70620 | 36.56764 | 22933 ft | 423 kts | 177° |
| 2026-04-28 13:35 | 32.67733 | 36.57126 | 22384 ft | 420 kts | 177° |
| 2026-04-28 13:35 | 32.64836 | 36.57510 | 21842 ft | 416 kts | 176° |
| 2026-04-28 13:35 | 32.61989 | 36.57889 | 21297 ft | 412 kts | 176° |
| 2026-04-28 13:36 | 32.59185 | 36.58260 | 20749 ft | 409 kts | 176° |
| 2026-04-28 13:36 | 32.56364 | 36.58633 | 20183 ft | 406 kts | 176° |
| 2026-04-28 13:36 | 32.53599 | 36.58997 | 19629 ft | 404 kts | 176° |
| 2026-04-28 13:36 | 32.50818 | 36.59361 | 19072 ft | 401 kts | 176° |
| 2026-04-28 13:37 | 32.48045 | 36.59724 | 18506 ft | 399 kts | 176° |
| 2026-04-28 13:37 | 32.45289 | 36.60084 | 17944 ft | 397 kts | 176° |
| 2026-04-28 13:37 | 32.42576 | 36.60439 | 17389 ft | 394 kts | 176° |
| 2026-04-28 13:37 | 32.39846 | 36.60796 | 16847 ft | 391 kts | 176° |
| 2026-04-28 13:38 | 32.37173 | 36.61144 | 16312 ft | 388 kts | 176° |
| 2026-04-28 13:38 | 32.34496 | 36.61216 | 15762 ft | 382 kts | 189° |
| 2026-04-28 13:38 | 32.31961 | 36.60440 | 15187 ft | 376 kts | 205° |
| 2026-04-28 13:38 | 32.29713 | 36.58956 | 14645 ft | 371 kts | 215° |
| 2026-04-28 13:39 | 32.27583 | 36.57268 | 14101 ft | 369 kts | 216° |
| 2026-04-28 13:39 | 32.25489 | 36.55586 | 13557 ft | 367 kts | 216° |
| 2026-04-28 13:39 | 32.23383 | 36.53914 | 13012 ft | 365 kts | 215° |
| 2026-04-28 13:39 | 32.21270 | 36.52256 | 12462 ft | 363 kts | 215° |
| 2026-04-28 13:40 | 32.19170 | 36.50617 | 11909 ft | 362 kts | 214° |
| 2026-04-28 13:40 | 32.17059 | 36.48993 | 11345 ft | 361 kts | 213° |
| 2026-04-28 13:40 | 32.14892 | 36.47515 | 10786 ft | 360 kts | 208° |
| 2026-04-28 13:40 | 32.12686 | 36.46224 | 10527 ft | 346 kts | 206° |
| 2026-04-28 13:41 | 32.10591 | 36.45044 | 10360 ft | 327 kts | 206° |
| 2026-04-28 13:41 | 32.08581 | 36.43920 | 10215 ft | 307 kts | 206° |
| 2026-04-28 13:41 | 32.06699 | 36.42866 | 10104 ft | 290 kts | 206° |
| 2026-04-28 13:41 | 32.04910 | 36.41864 | 10013 ft | 283 kts | 206° |
| 2026-04-28 13:42 | 32.03126 | 36.40863 | 9746 ft | 283 kts | 206° |
| 2026-04-28 13:42 | 32.01371 | 36.39875 | 9416 ft | 282 kts | 206° |
| 2026-04-28 13:42 | 31.99615 | 36.38890 | 9098 ft | 280 kts | 206° |
| 2026-04-28 13:42 | 31.97846 | 36.37896 | 8791 ft | 279 kts | 206° |
| 2026-04-28 13:43 | 31.96097 | 36.36913 | 8478 ft | 277 kts | 206° |
| 2026-04-28 13:43 | 31.94365 | 36.35941 | 8179 ft | 276 kts | 206° |
| 2026-04-28 13:43 | 31.92639 | 36.34973 | 7885 ft | 274 kts | 207° |
| 2026-04-28 13:43 | 31.90929 | 36.34013 | 7590 ft | 272 kts | 207° |
| 2026-04-28 13:44 | 31.89241 | 36.33066 | 7304 ft | 270 kts | 207° |
| 2026-04-28 13:44 | 31.87542 | 36.32120 | 7012 ft | 268 kts | 207° |
| 2026-04-28 13:44 | 31.85857 | 36.31181 | 6717 ft | 266 kts | 207° |
| 2026-04-28 13:44 | 31.84193 | 36.30251 | 6428 ft | 265 kts | 207° |
| 2026-04-28 13:45 | 31.82539 | 36.29325 | 6136 ft | 264 kts | 207° |
| 2026-04-28 13:45 | 31.80898 | 36.28406 | 5992 ft | 254 kts | 207° |
| 2026-04-28 13:45 | 31.79334 | 36.27533 | 5961 ft | 239 kts | 207° |
| 2026-04-28 13:45 | 31.77881 | 36.26712 | 5919 ft | 230 kts | 211° |
| 2026-04-28 13:46 | 31.76741 | 36.25466 | 5788 ft | 222 kts | 247° |
| 2026-04-28 13:46 | 31.76382 | 36.23761 | 5563 ft | 217 kts | 265° |
| 2026-04-28 13:46 | 31.76190 | 36.22006 | 5511 ft | 217 kts | 264° |
| 2026-04-28 13:46 | 31.75977 | 36.20261 | 5439 ft | 210 kts | 263° |
| 2026-04-28 13:47 | 31.75759 | 36.18618 | 5335 ft | 201 kts | 263° |
| 2026-04-28 13:47 | 31.75539 | 36.17025 | 5128 ft | 197 kts | 263° |
| 2026-04-28 13:47 | 31.75321 | 36.15474 | 4937 ft | 189 kts | 262° |
| 2026-04-28 13:47 | 31.75107 | 36.13959 | 4648 ft | 185 kts | 262° |
| 2026-04-28 13:48 | 31.74903 | 36.12519 | 4426 ft | 175 kts | 262° |
| 2026-04-28 13:48 | 31.74710 | 36.11177 | 4282 ft | 157 kts | 262° |
| 2026-04-28 13:48 | 31.74534 | 36.09962 | 4081 ft | 147 kts | 262° |
| 2026-04-28 13:48 | 31.74370 | 36.08824 | 3819 ft | 141 kts | 262° |
| 2026-04-28 13:49 | 31.74208 | 36.07684 | 3614 ft | 140 kts | 263° |
| 2026-04-28 13:49 | 31.74049 | 36.06553 | 3425 ft | 140 kts | 262° |
| 2026-04-28 13:49 | 31.73890 | 36.05425 | 3236 ft | 140 kts | 262° |
| 2026-04-28 13:49 | 31.73730 | 36.04312 | 3046 ft | 139 kts | 262° |
| 2026-04-28 13:50 | 31.73574 | 36.03217 | 2864 ft | 139 kts | 262° |
| 2026-04-28 13:50 | 31.73418 | 36.02123 | 2685 ft | 138 kts | 262° |
| 2026-04-28 13:50 | 31.73268 | 36.01044 | 2494 ft | 133 kts | 262° |
| 2026-04-28 13:50 | 31.73114 | 36.00027 | 2401 ft | 119 kts | 261° |
| 2026-04-28 13:51 | 31.73014 | 35.99326 | 2391 ft | 65 kts | 261° |
| 2026-04-28 13:51 | 31.72957 | 35.98901 | 2382 ft | 42 kts | 269° |
| 2026-04-28 13:51 | 31.72905 | 35.98619 | 2375 ft | 33 kts | 258° |
| 2026-04-28 13:51 | 31.72866 | 35.98361 | 2369 ft | 30 kts | 264° |
| 2026-04-28 13:52 | 31.72827 | 35.98217 | 2368 ft | 14 kts | 216° |
| 2026-04-28 13:52 | 31.72730 | 35.98209 | 2367 ft | 15 kts | 169° |
| 2026-04-28 13:52 | 31.72621 | 35.98236 | 2366 ft | 16 kts | 153° |
| 2026-04-28 13:52 | 31.72595 | 35.98341 | 2368 ft | 15 kts | 75° |
| 2026-04-28 13:53 | 31.72616 | 35.98451 | 2370 ft | 13 kts | 79° |
| 2026-04-28 13:53 | 31.72633 | 35.98558 | 2371 ft | 13 kts | 79° |
| 2026-04-28 13:53 | 31.72650 | 35.98667 | 2371 ft | 14 kts | 80° |
| 2026-04-28 13:53 | 31.72667 | 35.98774 | 2373 ft | 13 kts | 79° |
| 2026-04-28 13:54 | 31.72660 | 35.98869 | 2375 ft | 12 kts | 119° |
| 2026-04-28 13:54 | 31.72585 | 35.98917 | 2375 ft | 13 kts | 178° |
| 2026-04-28 13:54 | 31.72514 | 35.98855 | 2375 ft | 14 kts | 254° |
| 2026-04-28 13:54 | 31.72477 | 35.98791 | 2374 ft | 10 kts | 223° |
| 2026-04-28 13:55 | 31.72443 | 35.98763 | 2373 ft | 6 kts | 197° |
| 2026-04-28 13:55 | 31.72420 | 35.98760 | 2373 ft | 0 kts | 175° |
| 2026-04-28 13:55 | 31.72416 | 35.98761 | 2373 ft | 0 kts | 170° |
| 2026-04-28 13:55 | 31.72415 | 35.98761 | 2373 ft | 0 kts | 169° |